sensor_id;sensor_type;location;lat;lon;timestamp;temperature;humidity
20777;DHT22;10548;47.504;8.248;2022-08-19T00:01:53;17.90;99.90
20777;DHT22;10548;47.504;8.248;2022-08-19T00:04:24;17.90;99.90
20777;DHT22;10548;47.504;8.248;2022-08-19T00:06:52;17.80;99.90
20777;DHT22;10548;47.504;8.248;2022-08-19T00:09:20;17.80;99.90
20777;DHT22;10548;47.504;8.248;2022-08-19T00:11:48;17.80;99.90
20777;DHT22;10548;47.504;8.248;2022-08-19T00:14:16;17.90;99.90
20777;DHT22;10548;47.504;8.248;2022-08-19T00:16:45;17.90;99.90
20777;DHT22;10548;47.504;8.248;2022-08-19T00:19:13;17.80;99.90
20777;DHT22;10548;47.504;8.248;2022-08-19T00:21:41;17.80;99.90
20777;DHT22;10548;47.504;8.248;2022-08-19T00:24:10;17.80;99.90
20777;DHT22;10548;47.504;8.248;2022-08-19T00:26:37;17.80;99.90
20777;DHT22;10548;47.504;8.248;2022-08-19T00:29:06;17.80;99.90
20777;DHT22;10548;47.504;8.248;2022-08-19T00:31:34;17.80;99.90
20777;DHT22;10548;47.504;8.248;2022-08-19T00:34:01;17.80;99.90
20777;DHT22;10548;47.504;8.248;2022-08-19T00:36:28;17.80;99.90
20777;DHT22;10548;47.504;8.248;2022-08-19T00:38:55;17.80;99.90
20777;DHT22;10548;47.504;8.248;2022-08-19T00:41:24;17.90;99.90
20777;DHT22;10548;47.504;8.248;2022-08-19T00:44:06;17.90;99.90
20777;DHT22;10548;47.504;8.248;2022-08-19T00:46:36;17.80;99.90
20777;DHT22;10548;47.504;8.248;2022-08-19T00:49:16;17.80;99.90
20777;DHT22;10548;47.504;8.248;2022-08-19T00:51:47;17.80;99.90
20777;DHT22;10548;47.504;8.248;2022-08-19T00:54:16;17.80;99.90
20777;DHT22;10548;47.504;8.248;2022-08-19T00:56:44;17.90;99.90
20777;DHT22;10548;47.504;8.248;2022-08-19T00:59:13;17.80;99.90
20777;DHT22;10548;47.504;8.248;2022-08-19T01:02:02;17.90;99.90
20777;DHT22;10548;47.504;8.248;2022-08-19T01:04:30;17.80;99.90
20777;DHT22;10548;47.504;8.248;2022-08-19T01:06:58;17.80;99.90
20777;DHT22;10548;47.504;8.248;2022-08-19T01:09:26;17.90;99.90
20777;DHT22;10548;47.504;8.248;2022-08-19T01:11:53;17.80;99.90
20777;DHT22;10548;47.504;8.248;2022-08-19T01:14:21;17.80;99.90
20777;DHT22;10548;47.504;8.248;2022-08-19T01:16:48;17.80;99.90
20777;DHT22;10548;47.504;8.248;2022-08-19T01:19:20;17.80;99.90
20777;DHT22;10548;47.504;8.248;2022-08-19T01:22:08;17.80;99.90
20777;DHT22;10548;47.504;8.248;2022-08-19T01:24:42;17.80;99.90
20777;DHT22;10548;47.504;8.248;2022-08-19T01:27:16;17.80;99.90
20777;DHT22;10548;47.504;8.248;2022-08-19T01:29:44;17.80;99.90
20777;DHT22;10548;47.504;8.248;2022-08-19T01:32:13;17.80;99.90
20777;DHT22;10548;47.504;8.248;2022-08-19T01:35:03;17.90;99.90
20777;DHT22;10548;47.504;8.248;2022-08-19T01:37:40;17.80;99.90
20777;DHT22;10548;47.504;8.248;2022-08-19T01:40:09;17.80;99.90
20777;DHT22;10548;47.504;8.248;2022-08-19T01:42:36;17.80;99.90
20777;DHT22;10548;47.504;8.248;2022-08-19T01:45:05;17.80;99.90
20777;DHT22;10548;47.504;8.248;2022-08-19T01:47:35;17.90;99.90
20777;DHT22;10548;47.504;8.248;2022-08-19T01:50:04;18.00;99.90
20777;DHT22;10548;47.504;8.248;2022-08-19T01:52:31;18.00;99.90
20777;DHT22;10548;47.504;8.248;2022-08-19T01:54:58;18.00;99.90
20777;DHT22;10548;47.504;8.248;2022-08-19T01:57:26;18.00;99.90
20777;DHT22;10548;47.504;8.248;2022-08-19T01:59:53;18.00;99.90
20777;DHT22;10548;47.504;8.248;2022-08-19T02:02:20;18.00;99.90
20777;DHT22;10548;47.504;8.248;2022-08-19T02:04:47;18.00;99.90
20777;DHT22;10548;47.504;8.248;2022-08-19T02:07:15;18.00;99.90
20777;DHT22;10548;47.504;8.248;2022-08-19T02:09:42;17.90;99.90
20777;DHT22;10548;47.504;8.248;2022-08-19T02:12:09;17.90;99.90
20777;DHT22;10548;47.504;8.248;2022-08-19T02:14:36;17.90;99.90
20777;DHT22;10548;47.504;8.248;2022-08-19T02:17:04;18.00;99.90
20777;DHT22;10548;47.504;8.248;2022-08-19T02:19:31;17.90;99.90
20777;DHT22;10548;47.504;8.248;2022-08-19T02:21:59;18.00;99.90
20777;DHT22;10548;47.504;8.248;2022-08-19T02:24:27;18.00;99.90
20777;DHT22;10548;47.504;8.248;2022-08-19T02:26:54;17.90;99.90
20777;DHT22;10548;47.504;8.248;2022-08-19T02:29:21;17.90;99.90
20777;DHT22;10548;47.504;8.248;2022-08-19T02:31:48;17.90;99.90
20777;DHT22;10548;47.504;8.248;2022-08-19T02:34:16;18.00;99.90
20777;DHT22;10548;47.504;8.248;2022-08-19T02:36:43;17.90;99.90
20777;DHT22;10548;47.504;8.248;2022-08-19T02:39:17;17.90;99.90
20777;DHT22;10548;47.504;8.248;2022-08-19T02:41:45;17.90;99.90
20777;DHT22;10548;47.504;8.248;2022-08-19T02:44:12;17.90;99.90
20777;DHT22;10548;47.504;8.248;2022-08-19T02:46:57;17.90;99.90
20777;DHT22;10548;47.504;8.248;2022-08-19T02:49:24;17.90;99.90
20777;DHT22;10548;47.504;8.248;2022-08-19T02:51:51;17.90;99.90
20777;DHT22;10548;47.504;8.248;2022-08-19T02:54:18;17.90;99.90
20777;DHT22;10548;47.504;8.248;2022-08-19T02:56:45;18.00;99.90
20777;DHT22;10548;47.504;8.248;2022-08-19T02:59:13;17.90;99.90
20777;DHT22;10548;47.504;8.248;2022-08-19T03:01:41;17.80;99.90
20777;DHT22;10548;47.504;8.248;2022-08-19T03:04:13;17.80;99.90
20777;DHT22;10548;47.504;8.248;2022-08-19T03:06:44;17.80;99.90
20777;DHT22;10548;47.504;8.248;2022-08-19T03:09:13;17.80;99.90
20777;DHT22;10548;47.504;8.248;2022-08-19T03:11:40;17.90;99.90
20777;DHT22;10548;47.504;8.248;2022-08-19T03:14:08;17.90;99.90
20777;DHT22;10548;47.504;8.248;2022-08-19T03:16:43;17.90;99.90
20777;DHT22;10548;47.504;8.248;2022-08-19T03:19:10;17.90;99.90
20777;DHT22;10548;47.504;8.248;2022-08-19T03:21:37;17.90;99.90
20777;DHT22;10548;47.504;8.248;2022-08-19T03:24:07;17.90;99.90
20777;DHT22;10548;47.504;8.248;2022-08-19T03:26:39;17.90;99.90
20777;DHT22;10548;47.504;8.248;2022-08-19T03:29:07;17.90;99.90
20777;DHT22;10548;47.504;8.248;2022-08-19T03:31:38;17.90;99.90
20777;DHT22;10548;47.504;8.248;2022-08-19T03:34:13;17.90;99.90
20777;DHT22;10548;47.504;8.248;2022-08-19T03:36:40;17.90;99.90
20777;DHT22;10548;47.504;8.248;2022-08-19T03:39:07;17.90;99.90
20777;DHT22;10548;47.504;8.248;2022-08-19T03:41:39;17.90;99.90
20777;DHT22;10548;47.504;8.248;2022-08-19T03:44:13;17.90;99.90
20777;DHT22;10548;47.504;8.248;2022-08-19T03:46:49;17.80;99.90
20777;DHT22;10548;47.504;8.248;2022-08-19T03:49:17;17.80;99.90
20777;DHT22;10548;47.504;8.248;2022-08-19T03:51:46;17.80;99.90
20777;DHT22;10548;47.504;8.248;2022-08-19T03:54:15;17.80;99.90
20777;DHT22;10548;47.504;8.248;2022-08-19T03:56:44;17.80;99.90
20777;DHT22;10548;47.504;8.248;2022-08-19T03:59:15;17.70;99.90
20777;DHT22;10548;47.504;8.248;2022-08-19T04:01:43;17.80;99.90
20777;DHT22;10548;47.504;8.248;2022-08-19T04:04:10;17.80;99.90
20777;DHT22;10548;47.504;8.248;2022-08-19T04:06:38;17.80;99.90
20777;DHT22;10548;47.504;8.248;2022-08-19T04:09:10;17.70;99.90
20777;DHT22;10548;47.504;8.248;2022-08-19T04:11:45;17.70;99.90
20777;DHT22;10548;47.504;8.248;2022-08-19T04:14:15;17.70;99.90
20777;DHT22;10548;47.504;8.248;2022-08-19T04:16:43;17.60;99.90
20777;DHT22;10548;47.504;8.248;2022-08-19T04:19:15;17.60;99.90
20777;DHT22;10548;47.504;8.248;2022-08-19T04:21:44;17.60;99.90
20777;DHT22;10548;47.504;8.248;2022-08-19T04:24:12;17.60;99.90
20777;DHT22;10548;47.504;8.248;2022-08-19T04:26:40;17.60;99.90
20777;DHT22;10548;47.504;8.248;2022-08-19T04:29:09;17.50;99.90
20777;DHT22;10548;47.504;8.248;2022-08-19T04:31:39;17.50;99.90
20777;DHT22;10548;47.504;8.248;2022-08-19T04:34:09;17.60;99.90
20777;DHT22;10548;47.504;8.248;2022-08-19T04:36:41;17.50;99.90
20777;DHT22;10548;47.504;8.248;2022-08-19T04:39:18;17.50;99.90
20777;DHT22;10548;47.504;8.248;2022-08-19T04:41:46;17.50;99.90
20777;DHT22;10548;47.504;8.248;2022-08-19T04:44:34;17.60;99.90
20777;DHT22;10548;47.504;8.248;2022-08-19T04:47:04;17.60;99.90
20777;DHT22;10548;47.504;8.248;2022-08-19T04:49:37;17.60;99.90
20777;DHT22;10548;47.504;8.248;2022-08-19T04:52:04;17.60;99.90
20777;DHT22;10548;47.504;8.248;2022-08-19T04:54:31;17.60;99.90
20777;DHT22;10548;47.504;8.248;2022-08-19T04:57:07;17.60;99.90
20777;DHT22;10548;47.504;8.248;2022-08-19T04:59:38;17.60;99.90
20777;DHT22;10548;47.504;8.248;2022-08-19T05:02:07;17.70;99.90
20777;DHT22;10548;47.504;8.248;2022-08-19T05:04:35;17.60;99.90
20777;DHT22;10548;47.504;8.248;2022-08-19T05:07:07;17.60;99.90
20777;DHT22;10548;47.504;8.248;2022-08-19T05:09:34;17.70;99.90
20777;DHT22;10548;47.504;8.248;2022-08-19T05:12:21;17.70;99.90
20777;DHT22;10548;47.504;8.248;2022-08-19T05:14:56;17.60;99.90
20777;DHT22;10548;47.504;8.248;2022-08-19T05:17:25;17.70;99.90
20777;DHT22;10548;47.504;8.248;2022-08-19T05:19:56;17.70;99.90
20777;DHT22;10548;47.504;8.248;2022-08-19T05:22:43;17.80;99.90
20777;DHT22;10548;47.504;8.248;2022-08-19T05:25:15;17.80;99.90
20777;DHT22;10548;47.504;8.248;2022-08-19T05:27:46;17.80;99.90
20777;DHT22;10548;47.504;8.248;2022-08-19T05:30:14;17.80;99.90
20777;DHT22;10548;47.504;8.248;2022-08-19T05:32:41;17.90;99.90
20777;DHT22;10548;47.504;8.248;2022-08-19T05:35:09;17.80;99.90
20777;DHT22;10548;47.504;8.248;2022-08-19T05:37:36;17.90;99.90
20777;DHT22;10548;47.504;8.248;2022-08-19T05:40:05;17.90;99.90
20777;DHT22;10548;47.504;8.248;2022-08-19T05:42:33;17.90;99.90
20777;DHT22;10548;47.504;8.248;2022-08-19T05:45:00;18.00;99.90
20777;DHT22;10548;47.504;8.248;2022-08-19T05:47:28;17.90;99.90
20777;DHT22;10548;47.504;8.248;2022-08-19T05:49:55;18.00;99.90
20777;DHT22;10548;47.504;8.248;2022-08-19T05:52:22;18.00;99.90
20777;DHT22;10548;47.504;8.248;2022-08-19T05:54:52;17.90;99.90
20777;DHT22;10548;47.504;8.248;2022-08-19T05:57:22;17.90;99.90
20777;DHT22;10548;47.504;8.248;2022-08-19T05:59:50;17.90;99.90
20777;DHT22;10548;47.504;8.248;2022-08-19T06:02:28;17.90;99.90
20777;DHT22;10548;47.504;8.248;2022-08-19T06:04:55;18.00;99.90
20777;DHT22;10548;47.504;8.248;2022-08-19T06:07:22;18.10;99.90
20777;DHT22;10548;47.504;8.248;2022-08-19T06:09:50;18.10;99.90
20777;DHT22;10548;47.504;8.248;2022-08-19T06:12:31;18.20;99.90
20777;DHT22;10548;47.504;8.248;2022-08-19T06:15:06;18.20;99.90
20777;DHT22;10548;47.504;8.248;2022-08-19T06:17:33;18.10;99.90
20777;DHT22;10548;47.504;8.248;2022-08-19T06:20:11;18.30;99.90
20777;DHT22;10548;47.504;8.248;2022-08-19T06:22:44;18.20;99.90
20777;DHT22;10548;47.504;8.248;2022-08-19T06:25:14;18.20;99.90
20777;DHT22;10548;47.504;8.248;2022-08-19T06:27:41;18.30;99.90
20777;DHT22;10548;47.504;8.248;2022-08-19T06:30:28;18.30;99.90
20777;DHT22;10548;47.504;8.248;2022-08-19T06:32:56;18.30;99.90
20777;DHT22;10548;47.504;8.248;2022-08-19T06:35:23;18.20;99.90
20777;DHT22;10548;47.504;8.248;2022-08-19T06:37:50;18.30;99.90
20777;DHT22;10548;47.504;8.248;2022-08-19T06:40:17;18.30;99.90
20777;DHT22;10548;47.504;8.248;2022-08-19T06:42:44;18.40;99.90
20777;DHT22;10548;47.504;8.248;2022-08-19T06:45:20;18.40;99.90
20777;DHT22;10548;47.504;8.248;2022-08-19T06:47:51;18.40;99.90
20777;DHT22;10548;47.504;8.248;2022-08-19T06:50:24;18.30;99.90
20777;DHT22;10548;47.504;8.248;2022-08-19T06:52:51;18.30;99.90
20777;DHT22;10548;47.504;8.248;2022-08-19T06:55:19;18.30;99.90
20777;DHT22;10548;47.504;8.248;2022-08-19T06:57:46;18.30;99.90
20777;DHT22;10548;47.504;8.248;2022-08-19T07:00:15;18.40;99.90
20777;DHT22;10548;47.504;8.248;2022-08-19T07:02:43;18.40;99.90
20777;DHT22;10548;47.504;8.248;2022-08-19T07:05:19;18.40;99.90
20777;DHT22;10548;47.504;8.248;2022-08-19T07:07:46;18.40;99.90
20777;DHT22;10548;47.504;8.248;2022-08-19T07:10:13;18.40;99.90
20777;DHT22;10548;47.504;8.248;2022-08-19T07:12:40;18.40;99.90
20777;DHT22;10548;47.504;8.248;2022-08-19T07:15:08;18.40;99.90
20777;DHT22;10548;47.504;8.248;2022-08-19T07:17:37;18.40;99.90
20777;DHT22;10548;47.504;8.248;2022-08-19T07:20:08;18.60;99.90
20777;DHT22;10548;47.504;8.248;2022-08-19T07:22:38;18.70;99.90
20777;DHT22;10548;47.504;8.248;2022-08-19T07:25:07;18.70;99.90
20777;DHT22;10548;47.504;8.248;2022-08-19T07:27:35;18.70;99.90
20777;DHT22;10548;47.504;8.248;2022-08-19T07:30:06;18.60;99.90
20777;DHT22;10548;47.504;8.248;2022-08-19T07:32:38;18.80;99.90
20777;DHT22;10548;47.504;8.248;2022-08-19T07:35:06;18.70;99.90
20777;DHT22;10548;47.504;8.248;2022-08-19T07:37:33;18.50;99.90
20777;DHT22;10548;47.504;8.248;2022-08-19T07:40:04;18.50;99.90
20777;DHT22;10548;47.504;8.248;2022-08-19T07:42:32;18.40;99.90
20777;DHT22;10548;47.504;8.248;2022-08-19T07:44:59;18.40;99.90
20777;DHT22;10548;47.504;8.248;2022-08-19T07:47:26;18.50;99.90
20777;DHT22;10548;47.504;8.248;2022-08-19T07:50:16;18.60;99.90
20777;DHT22;10548;47.504;8.248;2022-08-19T07:52:44;18.70;99.90
20777;DHT22;10548;47.504;8.248;2022-08-19T07:55:16;18.70;99.90
20777;DHT22;10548;47.504;8.248;2022-08-19T07:58:04;18.70;99.90
20777;DHT22;10548;47.504;8.248;2022-08-19T08:00:32;18.70;99.90
20777;DHT22;10548;47.504;8.248;2022-08-19T08:02:59;18.70;99.90
20777;DHT22;10548;47.504;8.248;2022-08-19T08:05:26;18.70;99.90
20777;DHT22;10548;47.504;8.248;2022-08-19T08:08:12;18.90;99.90
20777;DHT22;10548;47.504;8.248;2022-08-19T08:10:59;18.80;99.90
20777;DHT22;10548;47.504;8.248;2022-08-19T08:13:27;18.80;99.90
20777;DHT22;10548;47.504;8.248;2022-08-19T08:15:55;18.80;99.90
20777;DHT22;10548;47.504;8.248;2022-08-19T08:18:25;18.70;99.90
20777;DHT22;10548;47.504;8.248;2022-08-19T08:20:54;18.70;99.90
20777;DHT22;10548;47.504;8.248;2022-08-19T08:23:22;18.70;99.90
20777;DHT22;10548;47.504;8.248;2022-08-19T08:25:51;18.60;99.90
20777;DHT22;10548;47.504;8.248;2022-08-19T08:28:19;18.60;99.90
20777;DHT22;10548;47.504;8.248;2022-08-19T08:30:47;18.60;99.90
20777;DHT22;10548;47.504;8.248;2022-08-19T08:33:21;18.70;99.90
20777;DHT22;10548;47.504;8.248;2022-08-19T08:36:02;18.60;99.90
20777;DHT22;10548;47.504;8.248;2022-08-19T08:38:32;18.70;99.90
20777;DHT22;10548;47.504;8.248;2022-08-19T08:44:02;18.70;99.90
20777;DHT22;10548;47.504;8.248;2022-08-19T08:46:42;18.60;99.90
20777;DHT22;10548;47.504;8.248;2022-08-19T08:52:20;18.60;99.90
20777;DHT22;10548;47.504;8.248;2022-08-19T08:54:50;18.60;99.90
20777;DHT22;10548;47.504;8.248;2022-08-19T08:57:37;18.70;99.90
20777;DHT22;10548;47.504;8.248;2022-08-19T09:00:11;18.60;99.90
20777;DHT22;10548;47.504;8.248;2022-08-19T09:02:43;18.60;99.90
20777;DHT22;10548;47.504;8.248;2022-08-19T09:05:16;18.60;99.90
20777;DHT22;10548;47.504;8.248;2022-08-19T09:08:10;18.60;99.90
20777;DHT22;10548;47.504;8.248;2022-08-19T09:10:46;18.70;99.90
20777;DHT22;10548;47.504;8.248;2022-08-19T09:13:52;18.60;99.90
20777;DHT22;10548;47.504;8.248;2022-08-19T09:16:22;18.60;99.90
20777;DHT22;10548;47.504;8.248;2022-08-19T09:19:01;18.60;99.90
20777;DHT22;10548;47.504;8.248;2022-08-19T09:21:32;18.60;99.90
20777;DHT22;10548;47.504;8.248;2022-08-19T09:24:02;18.60;99.90
20777;DHT22;10548;47.504;8.248;2022-08-19T09:26:30;18.60;99.90
20777;DHT22;10548;47.504;8.248;2022-08-19T09:29:18;18.60;99.90
20777;DHT22;10548;47.504;8.248;2022-08-19T09:31:48;18.60;99.90
20777;DHT22;10548;47.504;8.248;2022-08-19T09:34:16;18.60;99.90
20777;DHT22;10548;47.504;8.248;2022-08-19T09:36:50;18.60;99.90
20777;DHT22;10548;47.504;8.248;2022-08-19T09:39:22;18.60;99.90
20777;DHT22;10548;47.504;8.248;2022-08-19T09:41:49;18.70;99.90
20777;DHT22;10548;47.504;8.248;2022-08-19T09:44:17;18.80;99.90
20777;DHT22;10548;47.504;8.248;2022-08-19T09:46:45;18.80;99.90
20777;DHT22;10548;47.504;8.248;2022-08-19T09:49:15;18.80;99.90
20777;DHT22;10548;47.504;8.248;2022-08-19T09:51:45;18.90;99.90
20777;DHT22;10548;47.504;8.248;2022-08-19T09:54:17;19.00;99.90
20777;DHT22;10548;47.504;8.248;2022-08-19T09:56:49;19.00;99.90
20777;DHT22;10548;47.504;8.248;2022-08-19T09:59:17;19.00;99.90
20777;DHT22;10548;47.504;8.248;2022-08-19T10:01:44;18.90;99.90
20777;DHT22;10548;47.504;8.248;2022-08-19T10:04:12;19.00;99.90
20777;DHT22;10548;47.504;8.248;2022-08-19T10:06:47;19.00;99.90
20777;DHT22;10548;47.504;8.248;2022-08-19T10:09:19;19.00;99.90
20777;DHT22;10548;47.504;8.248;2022-08-19T10:12:00;18.90;99.90
20777;DHT22;10548;47.504;8.248;2022-08-19T10:14:28;18.90;99.90
20777;DHT22;10548;47.504;8.248;2022-08-19T10:16:55;19.00;99.90
20777;DHT22;10548;47.504;8.248;2022-08-19T10:19:25;19.10;99.90
20777;DHT22;10548;47.504;8.248;2022-08-19T10:21:55;19.10;99.90
20777;DHT22;10548;47.504;8.248;2022-08-19T10:24:26;19.20;99.90
20777;DHT22;10548;47.504;8.248;2022-08-19T10:26:55;19.10;99.90
20777;DHT22;10548;47.504;8.248;2022-08-19T10:29:26;19.00;99.90
20777;DHT22;10548;47.504;8.248;2022-08-19T10:32:04;19.00;99.90
20777;DHT22;10548;47.504;8.248;2022-08-19T10:34:37;19.10;99.90
20777;DHT22;10548;47.504;8.248;2022-08-19T10:37:15;19.20;99.90
20777;DHT22;10548;47.504;8.248;2022-08-19T10:39:54;19.10;99.90
20777;DHT22;10548;47.504;8.248;2022-08-19T10:42:21;19.20;99.90
20777;DHT22;10548;47.504;8.248;2022-08-19T10:44:49;19.30;99.90
20777;DHT22;10548;47.504;8.248;2022-08-19T10:47:17;19.60;99.90
20777;DHT22;10548;47.504;8.248;2022-08-19T10:49:54;19.60;99.90
20777;DHT22;10548;47.504;8.248;2022-08-19T10:52:45;19.60;99.90
20777;DHT22;10548;47.504;8.248;2022-08-19T10:55:19;19.60;99.90
20777;DHT22;10548;47.504;8.248;2022-08-19T10:58:10;19.60;99.90
20777;DHT22;10548;47.504;8.248;2022-08-19T11:00:38;19.60;99.90
20777;DHT22;10548;47.504;8.248;2022-08-19T11:03:05;19.60;99.90
20777;DHT22;10548;47.504;8.248;2022-08-19T11:05:35;19.60;99.90
20777;DHT22;10548;47.504;8.248;2022-08-19T11:08:06;19.70;99.90
20777;DHT22;10548;47.504;8.248;2022-08-19T11:10:51;20.00;99.90
20777;DHT22;10548;47.504;8.248;2022-08-19T11:13:20;20.10;99.90
20777;DHT22;10548;47.504;8.248;2022-08-19T11:16:00;20.00;99.90
20777;DHT22;10548;47.504;8.248;2022-08-19T11:18:43;20.10;99.90
20777;DHT22;10548;47.504;8.248;2022-08-19T11:21:16;19.90;99.90
20777;DHT22;10548;47.504;8.248;2022-08-19T11:23:52;19.90;99.90
20777;DHT22;10548;47.504;8.248;2022-08-19T11:26:20;19.80;99.90
20777;DHT22;10548;47.504;8.248;2022-08-19T11:28:48;19.90;99.90
20777;DHT22;10548;47.504;8.248;2022-08-19T11:31:19;19.80;99.90
20777;DHT22;10548;47.504;8.248;2022-08-19T11:33:49;19.80;99.90
20777;DHT22;10548;47.504;8.248;2022-08-19T11:36:21;19.80;99.90
20777;DHT22;10548;47.504;8.248;2022-08-19T11:38:49;19.70;99.90
20777;DHT22;10548;47.504;8.248;2022-08-19T11:41:18;19.60;99.90
20777;DHT22;10548;47.504;8.248;2022-08-19T11:43:46;19.80;99.90
20777;DHT22;10548;47.504;8.248;2022-08-19T11:46:14;19.70;99.90
20777;DHT22;10548;47.504;8.248;2022-08-19T11:48:41;19.60;99.90
20777;DHT22;10548;47.504;8.248;2022-08-19T11:58:04;19.70;99.90
20777;DHT22;10548;47.504;8.248;2022-08-19T12:00:52;19.70;99.90
20777;DHT22;10548;47.504;8.248;2022-08-19T12:03:32;19.80;99.90
20777;DHT22;10548;47.504;8.248;2022-08-19T12:06:05;20.00;99.90
20777;DHT22;10548;47.504;8.248;2022-08-19T12:08:33;20.00;99.90
20777;DHT22;10548;47.504;8.248;2022-08-19T12:11:00;20.00;99.90
20777;DHT22;10548;47.504;8.248;2022-08-19T12:13:29;19.90;99.90
20777;DHT22;10548;47.504;8.248;2022-08-19T12:15:57;19.90;99.90
20777;DHT22;10548;47.504;8.248;2022-08-19T12:18:25;19.90;99.90
20777;DHT22;10548;47.504;8.248;2022-08-19T12:20:53;19.90;99.90
20777;DHT22;10548;47.504;8.248;2022-08-19T12:23:23;20.00;99.90
20777;DHT22;10548;47.504;8.248;2022-08-19T12:25:50;20.00;99.90
20777;DHT22;10548;47.504;8.248;2022-08-19T12:28:19;20.00;99.90
20777;DHT22;10548;47.504;8.248;2022-08-19T12:30:48;20.10;99.90
20777;DHT22;10548;47.504;8.248;2022-08-19T12:33:17;20.10;99.90
20777;DHT22;10548;47.504;8.248;2022-08-19T12:35:45;20.30;99.90
20777;DHT22;10548;47.504;8.248;2022-08-19T12:38:13;20.30;99.90
20777;DHT22;10548;47.504;8.248;2022-08-19T12:40:41;20.30;99.90
20777;DHT22;10548;47.504;8.248;2022-08-19T12:43:11;20.30;99.90
20777;DHT22;10548;47.504;8.248;2022-08-19T12:45:38;20.30;99.90
20777;DHT22;10548;47.504;8.248;2022-08-19T12:48:08;20.30;99.90
20777;DHT22;10548;47.504;8.248;2022-08-19T12:50:55;20.40;99.90
20777;DHT22;10548;47.504;8.248;2022-08-19T12:53:23;20.50;99.90
20777;DHT22;10548;47.504;8.248;2022-08-19T12:55:57;20.50;99.90
20777;DHT22;10548;47.504;8.248;2022-08-19T12:58:27;20.50;99.90
20777;DHT22;10548;47.504;8.248;2022-08-19T13:00:55;20.70;99.90
20777;DHT22;10548;47.504;8.248;2022-08-19T13:03:22;20.80;99.90
20777;DHT22;10548;47.504;8.248;2022-08-19T13:05:55;20.80;99.90
20777;DHT22;10548;47.504;8.248;2022-08-19T13:08:23;20.80;99.90
20777;DHT22;10548;47.504;8.248;2022-08-19T13:10:50;20.80;99.90
20777;DHT22;10548;47.504;8.248;2022-08-19T13:13:17;20.90;99.90
20777;DHT22;10548;47.504;8.248;2022-08-19T13:15:44;20.90;99.90
20777;DHT22;10548;47.504;8.248;2022-08-19T13:20:40;20.90;99.90
20777;DHT22;10548;47.504;8.248;2022-08-19T13:23:08;20.80;99.90
20777;DHT22;10548;47.504;8.248;2022-08-19T13:25:36;20.80;99.90
20777;DHT22;10548;47.504;8.248;2022-08-19T13:28:03;20.80;99.90
20777;DHT22;10548;47.504;8.248;2022-08-19T13:30:33;20.90;99.90
20777;DHT22;10548;47.504;8.248;2022-08-19T13:33:19;21.00;99.90
20777;DHT22;10548;47.504;8.248;2022-08-19T13:35:57;20.90;99.90
20777;DHT22;10548;47.504;8.248;2022-08-19T13:38:25;20.80;99.90
20777;DHT22;10548;47.504;8.248;2022-08-19T13:40:54;20.90;99.90
20777;DHT22;10548;47.504;8.248;2022-08-19T13:43:24;20.90;99.90
20777;DHT22;10548;47.504;8.248;2022-08-19T13:45:53;21.00;99.90
20777;DHT22;10548;47.504;8.248;2022-08-19T13:48:25;21.10;99.90
20777;DHT22;10548;47.504;8.248;2022-08-19T13:50:53;21.10;99.90
20777;DHT22;10548;47.504;8.248;2022-08-19T13:53:21;21.10;99.90
20777;DHT22;10548;47.504;8.248;2022-08-19T13:55:48;21.00;99.90
20777;DHT22;10548;47.504;8.248;2022-08-19T13:58:17;21.00;99.90
20777;DHT22;10548;47.504;8.248;2022-08-19T14:00:45;20.90;99.90
20777;DHT22;10548;47.504;8.248;2022-08-19T14:03:13;20.90;99.90
20777;DHT22;10548;47.504;8.248;2022-08-19T14:05:40;21.10;99.90
20777;DHT22;10548;47.504;8.248;2022-08-19T14:08:07;21.10;99.90
20777;DHT22;10548;47.504;8.248;2022-08-19T14:10:36;21.10;99.90
20777;DHT22;10548;47.504;8.248;2022-08-19T14:13:03;21.10;99.90
20777;DHT22;10548;47.504;8.248;2022-08-19T14:15:31;21.10;99.90
20777;DHT22;10548;47.504;8.248;2022-08-19T14:17:58;21.00;99.90
20777;DHT22;10548;47.504;8.248;2022-08-19T14:27:51;19.50;99.90
20777;DHT22;10548;47.504;8.248;2022-08-19T14:30:25;20.90;99.90
20777;DHT22;10548;47.504;8.248;2022-08-19T14:32:55;20.90;99.90
20777;DHT22;10548;47.504;8.248;2022-08-19T14:37:51;20.90;99.90
20777;DHT22;10548;47.504;8.248;2022-08-19T14:40:24;20.90;99.90
20777;DHT22;10548;47.504;8.248;2022-08-19T14:47:58;21.00;99.90
20777;DHT22;10548;47.504;8.248;2022-08-19T14:50:27;20.90;99.90
20777;DHT22;10548;47.504;8.248;2022-08-19T14:53:02;20.90;99.90
20777;DHT22;10548;47.504;8.248;2022-08-19T14:55:41;20.90;99.90
20777;DHT22;10548;47.504;8.248;2022-08-19T14:58:09;20.90;99.90
20777;DHT22;10548;47.504;8.248;2022-08-19T15:00:56;20.90;99.90
20777;DHT22;10548;47.504;8.248;2022-08-19T15:03:24;20.90;99.60
20777;DHT22;10548;47.504;8.248;2022-08-19T15:05:51;20.90;99.30
20777;DHT22;10548;47.504;8.248;2022-08-19T15:08:18;20.70;98.90
20777;DHT22;10548;47.504;8.248;2022-08-19T15:10:45;20.70;99.50
20777;DHT22;10548;47.504;8.248;2022-08-19T15:13:14;20.70;99.30
20777;DHT22;10548;47.504;8.248;2022-08-19T15:15:41;20.70;99.90
20777;DHT22;10548;47.504;8.248;2022-08-19T15:18:08;20.80;99.20
20777;DHT22;10548;47.504;8.248;2022-08-19T15:20:36;20.80;98.00
20777;DHT22;10548;47.504;8.248;2022-08-19T15:23:03;21.00;96.20
20777;DHT22;10548;47.504;8.248;2022-08-19T15:25:30;21.10;97.70
20777;DHT22;10548;47.504;8.248;2022-08-19T15:27:57;21.20;96.80
20777;DHT22;10548;47.504;8.248;2022-08-19T15:30:26;21.40;95.20
20777;DHT22;10548;47.504;8.248;2022-08-19T15:32:55;21.20;94.50
20777;DHT22;10548;47.504;8.248;2022-08-19T15:35:23;21.10;94.70
20777;DHT22;10548;47.504;8.248;2022-08-19T15:37:53;21.30;97.80
20777;DHT22;10548;47.504;8.248;2022-08-19T15:40:32;21.40;97.40
20777;DHT22;10548;47.504;8.248;2022-08-19T15:43:00;21.40;97.20
20777;DHT22;10548;47.504;8.248;2022-08-19T15:45:27;21.10;98.80
20777;DHT22;10548;47.504;8.248;2022-08-19T15:48:02;21.10;98.60
20777;DHT22;10548;47.504;8.248;2022-08-19T15:50:30;21.30;99.90
20777;DHT22;10548;47.504;8.248;2022-08-19T15:53:03;21.30;99.90
20777;DHT22;10548;47.504;8.248;2022-08-19T15:55:33;21.30;99.10
20777;DHT22;10548;47.504;8.248;2022-08-19T15:58:07;21.10;99.70
20777;DHT22;10548;47.504;8.248;2022-08-19T16:01:00;21.10;99.90
20777;DHT22;10548;47.504;8.248;2022-08-19T16:03:48;21.10;99.90
20777;DHT22;10548;47.504;8.248;2022-08-19T16:06:52;21.10;99.90
20777;DHT22;10548;47.504;8.248;2022-08-19T16:09:22;20.80;99.90
20777;DHT22;10548;47.504;8.248;2022-08-19T16:12:02;20.80;99.90
20777;DHT22;10548;47.504;8.248;2022-08-19T16:14:32;21.00;99.90
20777;DHT22;10548;47.504;8.248;2022-08-19T16:17:00;21.00;99.90
20777;DHT22;10548;47.504;8.248;2022-08-19T16:19:28;20.70;99.90
20777;DHT22;10548;47.504;8.248;2022-08-19T16:21:55;20.70;99.90
20777;DHT22;10548;47.504;8.248;2022-08-19T16:24:26;20.60;99.90